Terminal Aerodrome Forecast
Issued by NWS

Home | Current Version | Previous Version | Text Only | Print | Product List | Glossary On
Versions: 1 2 3 4 5 6 7 8 9 10 11 12 13 14 15 16 17 18 19 20 21 22 23 24 25
429
FTUS46 KMTR 051138
TAFSFO
TAF
KSFO 051138Z 0512/0618 26007KT P6SM FEW006
      TEMPO 0512/0516 BKN006
     FM051700 29008KT P6SM SCT010
     FM052000 28015KT P6SM SCT200
     FM060600 28011KT P6SM BKN200=

USA.gov is the U.S. government's official web portal to all federal, state and local government web resources and services.